ROT5 ZSPD-ZSSS
Flight info
| Callsign | ROT5 |
|---|---|
| Flight time | N/A |
| Altitude | 5900 |
| Route | JTN |
| Aircraft | B738/M-SDE2E3FGHIRWXY/LB1 |
Departure
| Time | 2026-04-30 10:25 |
|---|---|
| Airport | Shanghai Pudong International Airport (ZSPD) |
Arrival
| Time | N/A |
|---|---|
| Airport | Shanghai Hongqiao International Airport (ZSSS) |
| Time | Latitude | Longitude | Altitude | Speed | Heading |
|---|---|---|---|---|---|
| 2026-04-30 09:59 | 31.15007 | 121.79712 | 23 ft | 0 kts | 73° |
| 2026-04-30 10:13 | 31.15004 | 121.79700 | 23 ft | 2 kts | 73° |
| 2026-04-30 10:14 | 31.15000 | 121.79684 | 23 ft | 2 kts | 73° |
| 2026-04-30 10:14 | 31.14995 | 121.79666 | 23 ft | 2 kts | 73° |
| 2026-04-30 10:14 | 31.14987 | 121.79633 | 23 ft | 2 kts | 79° |
| 2026-04-30 10:15 | 31.14987 | 121.79615 | 23 ft | 2 kts | 102° |
| 2026-04-30 10:15 | 31.14992 | 121.79599 | 23 ft | 2 kts | 120° |
| 2026-04-30 10:15 | 31.15001 | 121.79585 | 23 ft | 2 kts | 139° |
| 2026-04-30 10:15 | 31.15013 | 121.79576 | 23 ft | 1 kts | 157° |
| 2026-04-30 10:16 | 31.15019 | 121.79574 | 23 ft | 1 kts | 163° |
| 2026-04-30 10:16 | 31.15021 | 121.79572 | 23 ft | 0 kts | 162° |
| 2026-04-30 10:19 | 31.15018 | 121.79574 | 22 ft | 1 kts | 162° |
| 2026-04-30 10:19 | 31.14994 | 121.79582 | 23 ft | 5 kts | 172° |
| 2026-04-30 10:19 | 31.14951 | 121.79569 | 22 ft | 7 kts | 214° |
| 2026-04-30 10:20 | 31.14922 | 121.79502 | 23 ft | 11 kts | 251° |
| 2026-04-30 10:20 | 31.14836 | 121.79316 | 23 ft | 14 kts | 178° |
| 2026-04-30 10:20 | 31.14737 | 121.79351 | 22 ft | 15 kts | 160° |
| 2026-04-30 10:21 | 31.14625 | 121.79394 | 22 ft | 18 kts | 163° |
| 2026-04-30 10:21 | 31.14495 | 121.79442 | 22 ft | 20 kts | 166° |
| 2026-04-30 10:21 | 31.14351 | 121.79491 | 22 ft | 22 kts | 163° |
| 2026-04-30 10:21 | 31.14198 | 121.79549 | 22 ft | 22 kts | 161° |
| 2026-04-30 10:22 | 31.14053 | 121.79605 | 23 ft | 22 kts | 161° |
| 2026-04-30 10:22 | 31.13905 | 121.79662 | 23 ft | 23 kts | 161° |
| 2026-04-30 10:22 | 31.13756 | 121.79717 | 23 ft | 22 kts | 161° |
| 2026-04-30 10:22 | 31.13617 | 121.79768 | 22 ft | 20 kts | 162° |
| 2026-04-30 10:23 | 31.13477 | 121.79821 | 22 ft | 22 kts | 162° |
| 2026-04-30 10:23 | 31.13325 | 121.79880 | 22 ft | 23 kts | 163° |
| 2026-04-30 10:23 | 31.13171 | 121.79937 | 22 ft | 22 kts | 161° |
| 2026-04-30 10:23 | 31.13021 | 121.79993 | 22 ft | 22 kts | 165° |
| 2026-04-30 10:24 | 31.12922 | 121.79931 | 22 ft | 17 kts | 250° |
| 2026-04-30 10:24 | 31.12930 | 121.79813 | 22 ft | 14 kts | 319° |
| 2026-04-30 10:24 | 31.13037 | 121.79757 | 23 ft | 25 kts | 334° |
| 2026-04-30 10:24 | 31.13567 | 121.79569 | 23 ft | 134 kts | 346° |
| 2026-04-30 10:25 | 31.14696 | 121.79099 | 351 ft | 197 kts | 340° |
| 2026-04-30 10:25 | 31.15826 | 121.78487 | 2030 ft | 178 kts | 334° |
| 2026-04-30 10:25 | 31.16818 | 121.77853 | 3035 ft | 165 kts | 334° |
| 2026-04-30 10:25 | 31.17942 | 121.77150 | 3126 ft | 201 kts | 334° |
| 2026-04-30 10:26 | 31.19195 | 121.76376 | 2999 ft | 209 kts | 334° |
| 2026-04-30 10:26 | 31.20495 | 121.75577 | 2992 ft | 209 kts | 334° |
| 2026-04-30 10:26 | 31.21767 | 121.74786 | 2994 ft | 210 kts | 334° |
| 2026-04-30 10:26 | 31.23062 | 121.73982 | 2992 ft | 208 kts | 334° |
| 2026-04-30 10:27 | 31.24309 | 121.73206 | 3031 ft | 198 kts | 334° |
| 2026-04-30 10:27 | 31.25512 | 121.72467 | 3059 ft | 191 kts | 334° |
| 2026-04-30 10:27 | 31.26668 | 121.71746 | 3116 ft | 185 kts | 334° |
| 2026-04-30 10:27 | 31.27853 | 121.71014 | 3259 ft | 193 kts | 334° |
| 2026-04-30 10:28 | 31.29026 | 121.70282 | 3436 ft | 193 kts | 334° |
| 2026-04-30 10:28 | 31.30240 | 121.69523 | 3612 ft | 197 kts | 331° |
| 2026-04-30 10:28 | 31.31205 | 121.68386 | 3775 ft | 201 kts | 297° |
| 2026-04-30 10:28 | 31.31437 | 121.66814 | 3965 ft | 200 kts | 260° |
| 2026-04-30 10:29 | 31.30811 | 121.65384 | 4226 ft | 200 kts | 223° |
| 2026-04-30 10:29 | 31.29593 | 121.64682 | 4476 ft | 196 kts | 185° |
| 2026-04-30 10:29 | 31.28263 | 121.64893 | 4742 ft | 196 kts | 162° |
| 2026-04-30 10:29 | 31.26940 | 121.65300 | 4988 ft | 196 kts | 164° |
| 2026-04-30 10:30 | 31.25600 | 121.65698 | 5225 ft | 210 kts | 164° |
| 2026-04-30 10:30 | 31.24115 | 121.66147 | 5490 ft | 233 kts | 164° |
| 2026-04-30 10:30 | 31.22473 | 121.66606 | 5738 ft | 247 kts | 171° |
| 2026-04-30 10:30 | 31.20773 | 121.66428 | 5975 ft | 251 kts | 198° |
| 2026-04-30 10:31 | 31.19187 | 121.65575 | 6239 ft | 251 kts | 205° |
| 2026-04-30 10:31 | 31.17604 | 121.64690 | 6486 ft | 254 kts | 204° |
| 2026-04-30 10:31 | 31.16000 | 121.63808 | 6736 ft | 254 kts | 204° |
| 2026-04-30 10:31 | 31.14417 | 121.62933 | 6983 ft | 254 kts | 204° |
| 2026-04-30 10:32 | 31.12802 | 121.62041 | 7236 ft | 257 kts | 204° |
| 2026-04-30 10:32 | 31.11207 | 121.61162 | 7483 ft | 258 kts | 204° |
| 2026-04-30 10:32 | 31.09578 | 121.60265 | 7734 ft | 259 kts | 204° |
| 2026-04-30 10:32 | 31.07951 | 121.59370 | 7788 ft | 260 kts | 204° |
| 2026-04-30 10:33 | 31.06316 | 121.58472 | 7793 ft | 260 kts | 204° |
| 2026-04-30 10:33 | 31.04700 | 121.57583 | 7793 ft | 258 kts | 204° |
| 2026-04-30 10:33 | 31.03068 | 121.56685 | 7793 ft | 258 kts | 204° |
| 2026-04-30 10:33 | 31.01462 | 121.55799 | 7641 ft | 248 kts | 204° |
| 2026-04-30 10:34 | 30.99923 | 121.54949 | 6920 ft | 252 kts | 204° |
| 2026-04-30 10:34 | 30.98340 | 121.54077 | 6174 ft | 255 kts | 204° |
| 2026-04-30 10:34 | 30.96730 | 121.53207 | 5535 ft | 251 kts | 205° |
| 2026-04-30 10:34 | 30.95159 | 121.52426 | 4942 ft | 245 kts | 204° |
| 2026-04-30 10:35 | 30.93600 | 121.51669 | 4245 ft | 245 kts | 204° |
| 2026-04-30 10:35 | 30.92084 | 121.50941 | 4002 ft | 226 kts | 204° |
| 2026-04-30 10:35 | 30.90711 | 121.50284 | 3989 ft | 200 kts | 204° |
| 2026-04-30 10:35 | 30.89481 | 121.49703 | 3821 ft | 178 kts | 204° |
| 2026-04-30 10:36 | 30.88382 | 121.49184 | 3193 ft | 177 kts | 207° |
| 2026-04-30 10:36 | 30.87468 | 121.48256 | 2290 ft | 180 kts | 242° |
| 2026-04-30 10:36 | 30.87333 | 121.46909 | 1942 ft | 171 kts | 284° |
| 2026-04-30 10:36 | 30.87665 | 121.45529 | 1990 ft | 179 kts | 284° |
| 2026-04-30 10:37 | 30.87961 | 121.44125 | 1989 ft | 180 kts | 284° |
| 2026-04-30 10:37 | 30.88471 | 121.42802 | 1985 ft | 180 kts | 309° |
| 2026-04-30 10:37 | 30.89463 | 121.41929 | 1995 ft | 183 kts | 326° |
| 2026-04-30 10:37 | 30.90509 | 121.41093 | 1994 ft | 182 kts | 324° |
| 2026-04-30 10:38 | 30.91554 | 121.40260 | 1992 ft | 183 kts | 324° |
| 2026-04-30 10:38 | 30.92588 | 121.39426 | 1993 ft | 181 kts | 324° |
| 2026-04-30 10:38 | 30.93623 | 121.38594 | 1992 ft | 182 kts | 324° |
| 2026-04-30 10:38 | 30.94681 | 121.37750 | 1993 ft | 182 kts | 324° |
| 2026-04-30 10:39 | 30.95710 | 121.36916 | 1994 ft | 183 kts | 324° |
| 2026-04-30 10:39 | 30.96764 | 121.36078 | 1993 ft | 184 kts | 324° |
| 2026-04-30 10:39 | 30.97832 | 121.35262 | 1988 ft | 181 kts | 332° |
| 2026-04-30 10:39 | 30.99057 | 121.34934 | 2000 ft | 186 kts | 351° |
| 2026-04-30 10:40 | 31.00363 | 121.34757 | 1993 ft | 186 kts | 352° |
| 2026-04-30 10:40 | 31.01643 | 121.34617 | 1992 ft | 183 kts | 354° |
| 2026-04-30 10:40 | 31.02933 | 121.34537 | 1991 ft | 185 kts | 355° |
| 2026-04-30 10:40 | 31.04225 | 121.34463 | 1994 ft | 187 kts | 355° |
| 2026-04-30 10:41 | 31.05485 | 121.34395 | 1993 ft | 184 kts | 355° |
| 2026-04-30 10:41 | 31.06782 | 121.34325 | 1991 ft | 183 kts | 355° |
| 2026-04-30 10:41 | 31.08008 | 121.34259 | 1981 ft | 168 kts | 355° |
| 2026-04-30 10:41 | 31.09165 | 121.34197 | 1857 ft | 163 kts | 355° |
| 2026-04-30 10:42 | 31.10219 | 121.34141 | 1634 ft | 139 kts | 355° |
| 2026-04-30 10:42 | 31.11146 | 121.34090 | 1451 ft | 132 kts | 355° |
| 2026-04-30 10:42 | 31.12078 | 121.34040 | 1275 ft | 133 kts | 355° |
| 2026-04-30 10:42 | 31.12985 | 121.33992 | 1098 ft | 130 kts | 355° |
| 2026-04-30 10:43 | 31.13902 | 121.33942 | 921 ft | 132 kts | 355° |
| 2026-04-30 10:43 | 31.14805 | 121.33894 | 742 ft | 129 kts | 355° |
| 2026-04-30 10:43 | 31.15698 | 121.33845 | 573 ft | 130 kts | 355° |
| 2026-04-30 10:43 | 31.16593 | 121.33800 | 395 ft | 130 kts | 354° |
| 2026-04-30 10:44 | 31.17475 | 121.33748 | 228 ft | 127 kts | 355° |
| 2026-04-30 10:44 | 31.18373 | 121.33703 | 69 ft | 128 kts | 355° |
| 2026-04-30 10:44 | 31.19253 | 121.33650 | 40 ft | 125 kts | 355° |
| 2026-04-30 10:44 | 31.20135 | 121.33607 | 18 ft | 129 kts | 353° |